sensor_id;sensor_type;location;lat;lon;timestamp;temperature;humidity
7248;DHT22;3665;51.034;13.642;2023-03-11T00:01:17;1.90;1.00
7248;DHT22;3665;51.034;13.642;2023-03-11T00:06:29;1.40;1.00
7248;DHT22;3665;51.034;13.642;2023-03-11T00:11:32;1.30;1.00
7248;DHT22;3665;51.034;13.642;2023-03-11T00:16:36;1.10;99.90
7248;DHT22;3665;51.034;13.642;2023-03-11T00:27:59;0.90;97.40
7248;DHT22;3665;51.034;13.642;2023-03-11T00:32:47;0.80;99.90
7248;DHT22;3665;51.034;13.642;2023-03-11T00:37:34;0.70;99.90
7248;DHT22;3665;51.034;13.642;2023-03-11T00:42:52;0.80;99.90
7248;DHT22;3665;51.034;13.642;2023-03-11T00:47:43;0.70;99.90
7248;DHT22;3665;51.034;13.642;2023-03-11T00:52:52;0.60;99.90
7248;DHT22;3665;51.034;13.642;2023-03-11T00:57:52;0.60;99.90
7248;DHT22;3665;51.034;13.642;2023-03-11T01:03:23;0.50;99.90
7248;DHT22;3665;51.034;13.642;2023-03-11T01:08:12;0.50;99.90
7248;DHT22;3665;51.034;13.642;2023-03-11T01:13:04;0.40;99.90
7248;DHT22;3665;51.034;13.642;2023-03-11T01:18:06;0.40;99.90
7248;DHT22;3665;51.034;13.642;2023-03-11T01:23:24;0.30;99.90
7248;DHT22;3665;51.034;13.642;2023-03-11T01:28:14;0.30;99.90
7248;DHT22;3665;51.034;13.642;2023-03-11T01:33:17;0.20;99.90
7248;DHT22;3665;51.034;13.642;2023-03-11T01:38:05;0.20;99.90
7248;DHT22;3665;51.034;13.642;2023-03-11T01:43:00;0.20;99.90
7248;DHT22;3665;51.034;13.642;2023-03-11T01:48:02;0.20;99.90
7248;DHT22;3665;51.034;13.642;2023-03-11T01:52:46;0.20;99.90
7248;DHT22;3665;51.034;13.642;2023-03-11T01:57:35;0.20;99.90
7248;DHT22;3665;51.034;13.642;2023-03-11T02:02:41;0.20;99.90
7248;DHT22;3665;51.034;13.642;2023-03-11T02:07:27;0.20;99.90
7248;DHT22;3665;51.034;13.642;2023-03-11T02:12:17;0.20;99.90
7248;DHT22;3665;51.034;13.642;2023-03-11T02:17:18;0.20;99.90
7248;DHT22;3665;51.034;13.642;2023-03-11T02:22:12;0.20;99.90
7248;DHT22;3665;51.034;13.642;2023-03-11T02:27:13;0.10;99.90
7248;DHT22;3665;51.034;13.642;2023-03-11T02:32:16;0.10;99.90
7248;DHT22;3665;51.034;13.642;2023-03-11T02:37:04;0.10;99.90
7248;DHT22;3665;51.034;13.642;2023-03-11T02:41:48;0.00;99.90
7248;DHT22;3665;51.034;13.642;2023-03-11T02:46:41;0.00;99.90
7248;DHT22;3665;51.034;13.642;2023-03-11T02:51:29;0.00;99.90
7248;DHT22;3665;51.034;13.642;2023-03-11T02:56:31;0.00;99.90
7248;DHT22;3665;51.034;13.642;2023-03-11T03:01:18;0.00;99.90
7248;DHT22;3665;51.034;13.642;2023-03-11T03:06:09;-0.20;99.90
7248;DHT22;3665;51.034;13.642;2023-03-11T03:10:53;-0.20;99.90
7248;DHT22;3665;51.034;13.642;2023-03-11T03:15:41;-0.30;99.90
7248;DHT22;3665;51.034;13.642;2023-03-11T03:20:31;-0.30;99.90
7248;DHT22;3665;51.034;13.642;2023-03-11T03:25:18;-0.20;99.90
7248;DHT22;3665;51.034;13.642;2023-03-11T03:30:21;-0.30;99.90
7248;DHT22;3665;51.034;13.642;2023-03-11T03:35:09;-0.40;99.90
7248;DHT22;3665;51.034;13.642;2023-03-11T03:40:15;-0.40;99.90
7248;DHT22;3665;51.034;13.642;2023-03-11T03:45:04;-0.50;99.90
7248;DHT22;3665;51.034;13.642;2023-03-11T03:49:48;-0.50;99.90
7248;DHT22;3665;51.034;13.642;2023-03-11T03:54:39;-0.50;99.90
7248;DHT22;3665;51.034;13.642;2023-03-11T03:59:27;-0.60;99.90
7248;DHT22;3665;51.034;13.642;2023-03-11T04:04:15;-0.60;99.90
7248;DHT22;3665;51.034;13.642;2023-03-11T04:09:04;-0.60;99.90
7248;DHT22;3665;51.034;13.642;2023-03-11T04:13:53;-0.60;99.90
7248;DHT22;3665;51.034;13.642;2023-03-11T04:18:39;-0.60;99.90
7248;DHT22;3665;51.034;13.642;2023-03-11T04:23:34;-0.70;99.90
7248;DHT22;3665;51.034;13.642;2023-03-11T04:28:32;-0.70;99.90
7248;DHT22;3665;51.034;13.642;2023-03-11T04:33:22;-0.70;99.90
7248;DHT22;3665;51.034;13.642;2023-03-11T04:38:07;-0.70;99.90
7248;DHT22;3665;51.034;13.642;2023-03-11T04:42:59;-0.60;99.90
7248;DHT22;3665;51.034;13.642;2023-03-11T04:47:46;-0.70;99.90
7248;DHT22;3665;51.034;13.642;2023-03-11T04:52:48;-0.70;99.90
7248;DHT22;3665;51.034;13.642;2023-03-11T04:57:35;-0.70;99.90
7248;DHT22;3665;51.034;13.642;2023-03-11T05:02:29;-0.70;99.90
7248;DHT22;3665;51.034;13.642;2023-03-11T05:07:29;-0.70;99.90
7248;DHT22;3665;51.034;13.642;2023-03-11T05:12:17;-0.70;99.90
7248;DHT22;3665;51.034;13.642;2023-03-11T05:17:05;-0.70;99.90
7248;DHT22;3665;51.034;13.642;2023-03-11T05:21:52;-0.70;99.90
7248;DHT22;3665;51.034;13.642;2023-03-11T05:26:41;-0.70;99.90
7248;DHT22;3665;51.034;13.642;2023-03-11T05:31:29;-0.70;99.90
7248;DHT22;3665;51.034;13.642;2023-03-11T05:36:15;-0.70;99.90
7248;DHT22;3665;51.034;13.642;2023-03-11T05:41:04;-0.70;99.90
7248;DHT22;3665;51.034;13.642;2023-03-11T05:45:52;-0.60;99.90
7248;DHT22;3665;51.034;13.642;2023-03-11T05:50:39;-0.60;99.90
7248;DHT22;3665;51.034;13.642;2023-03-11T05:55:32;-0.60;99.90
7248;DHT22;3665;51.034;13.642;2023-03-11T06:00:18;-0.70;99.90
7248;DHT22;3665;51.034;13.642;2023-03-11T06:05:06;-0.60;99.90
7248;DHT22;3665;51.034;13.642;2023-03-11T06:10:08;-0.60;99.90
7248;DHT22;3665;51.034;13.642;2023-03-11T06:14:55;-0.60;99.90
7248;DHT22;3665;51.034;13.642;2023-03-11T06:19:50;-0.50;99.90
7248;DHT22;3665;51.034;13.642;2023-03-11T06:24:47;-0.60;99.90
7248;DHT22;3665;51.034;13.642;2023-03-11T06:29:38;-0.60;99.90
7248;DHT22;3665;51.034;13.642;2023-03-11T06:34:23;-0.40;99.90
7248;DHT22;3665;51.034;13.642;2023-03-11T06:39:14;-0.40;99.90
7248;DHT22;3665;51.034;13.642;2023-03-11T06:44:01;-0.50;99.90
7248;DHT22;3665;51.034;13.642;2023-03-11T06:48:47;-0.50;99.90
7248;DHT22;3665;51.034;13.642;2023-03-11T06:53:35;-0.50;99.90
7248;DHT22;3665;51.034;13.642;2023-03-11T06:58:31;-0.30;99.90
7248;DHT22;3665;51.034;13.642;2023-03-11T07:03:30;-0.30;99.90
7248;DHT22;3665;51.034;13.642;2023-03-11T07:08:17;-0.40;99.90
7248;DHT22;3665;51.034;13.642;2023-03-11T07:13:03;-0.40;99.90
7248;DHT22;3665;51.034;13.642;2023-03-11T07:17:52;-0.40;99.90
7248;DHT22;3665;51.034;13.642;2023-03-11T07:22:39;-0.50;99.90
7248;DHT22;3665;51.034;13.642;2023-03-11T07:27:32;-0.40;99.90
7248;DHT22;3665;51.034;13.642;2023-03-11T07:32:16;-0.40;99.90
7248;DHT22;3665;51.034;13.642;2023-03-11T07:37:24;-0.50;99.90
7248;DHT22;3665;51.034;13.642;2023-03-11T07:42:28;-0.40;99.90
7248;DHT22;3665;51.034;13.642;2023-03-11T07:48:48;-0.30;99.90
7248;DHT22;3665;51.034;13.642;2023-03-11T08:05:40;-0.20;99.90
7248;DHT22;3665;51.034;13.642;2023-03-11T08:17:09;0.10;99.90
7248;DHT22;3665;51.034;13.642;2023-03-11T08:22:47;0.20;99.90
7248;DHT22;3665;51.034;13.642;2023-03-11T08:28:54;0.10;99.90
7248;DHT22;3665;51.034;13.642;2023-03-11T08:39:34;0.30;99.90
7248;DHT22;3665;51.034;13.642;2023-03-11T08:45:35;0.30;99.90
7248;DHT22;3665;51.034;13.642;2023-03-11T08:51:20;0.30;99.90
7248;DHT22;3665;51.034;13.642;2023-03-11T10:28:53;0.70;99.90
7248;DHT22;3665;51.034;13.642;2023-03-11T10:35:02;0.50;99.90
7248;DHT22;3665;51.034;13.642;2023-03-11T10:45:59;1.30;99.90
7248;DHT22;3665;51.034;13.642;2023-03-11T11:00:39;1.30;99.90
7248;DHT22;3665;51.034;13.642;2023-03-11T11:32:53;1.10;39.00
7248;DHT22;3665;51.034;13.642;2023-03-11T13:14:29;0.80;23.10
7248;DHT22;3665;51.034;13.642;2023-03-11T13:33:54;0.70;4.80
7248;DHT22;3665;51.034;13.642;2023-03-11T13:44:34;1.00;10.00
7248;DHT22;3665;51.034;13.642;2023-03-11T14:00:53;1.80;1.00
7248;DHT22;3665;51.034;13.642;2023-03-11T15:57:27;1.00;1.00
7248;DHT22;3665;51.034;13.642;2023-03-11T16:03:48;0.90;1.00
7248;DHT22;3665;51.034;13.642;2023-03-11T16:09:46;0.90;1.00
7248;DHT22;3665;51.034;13.642;2023-03-11T16:22:28;0.90;1.00
7248;DHT22;3665;51.034;13.642;2023-03-11T16:32:39;0.70;1.00
7248;DHT22;3665;51.034;13.642;2023-03-11T16:37:28;0.70;1.00
7248;DHT22;3665;51.034;13.642;2023-03-11T16:43:20;0.60;1.00
7248;DHT22;3665;51.034;13.642;2023-03-11T16:53:40;0.30;1.00
7248;DHT22;3665;51.034;13.642;2023-03-11T16:58:32;0.20;5.60
7248;DHT22;3665;51.034;13.642;2023-03-11T17:04:06;0.10;2.20
7248;DHT22;3665;51.034;13.642;2023-03-11T17:09:17;0.00;8.70
7248;DHT22;3665;51.034;13.642;2023-03-11T17:15:00;-0.20;33.30
7248;DHT22;3665;51.034;13.642;2023-03-11T17:19:49;-0.30;53.70
7248;DHT22;3665;51.034;13.642;2023-03-11T17:24:37;-0.30;66.70
7248;DHT22;3665;51.034;13.642;2023-03-11T17:29:41;-0.50;59.00
7248;DHT22;3665;51.034;13.642;2023-03-11T17:34:29;-0.60;58.00
7248;DHT22;3665;51.034;13.642;2023-03-11T17:39:17;-0.60;72.60
7248;DHT22;3665;51.034;13.642;2023-03-11T17:44:05;-0.60;81.80
7248;DHT22;3665;51.034;13.642;2023-03-11T17:48:52;-0.80;70.30
7248;DHT22;3665;51.034;13.642;2023-03-11T17:53:40;-0.80;61.70
7248;DHT22;3665;51.034;13.642;2023-03-11T17:58:30;-0.90;75.80
7248;DHT22;3665;51.034;13.642;2023-03-11T18:03:33;-0.90;65.90
7248;DHT22;3665;51.034;13.642;2023-03-11T18:08:20;-1.00;93.00
7248;DHT22;3665;51.034;13.642;2023-03-11T18:13:08;-1.10;99.50
7248;DHT22;3665;51.034;13.642;2023-03-11T18:17:57;-1.10;94.80
7248;DHT22;3665;51.034;13.642;2023-03-11T18:22:48;-1.10;89.80
7248;DHT22;3665;51.034;13.642;2023-03-11T18:27:41;-1.30;99.90
7248;DHT22;3665;51.034;13.642;2023-03-11T18:32:34;-1.30;99.90
7248;DHT22;3665;51.034;13.642;2023-03-11T18:37:27;-1.30;99.90
7248;DHT22;3665;51.034;13.642;2023-03-11T18:42:13;-1.40;99.90
7248;DHT22;3665;51.034;13.642;2023-03-11T18:47:01;-1.40;99.90
7248;DHT22;3665;51.034;13.642;2023-03-11T18:51:48;-1.40;99.90
7248;DHT22;3665;51.034;13.642;2023-03-11T18:56:37;-1.40;99.90
7248;DHT22;3665;51.034;13.642;2023-03-11T19:01:24;-1.50;92.30
7248;DHT22;3665;51.034;13.642;2023-03-11T19:06:12;-1.60;99.90
7248;DHT22;3665;51.034;13.642;2023-03-11T19:11:05;-1.60;99.90
7248;DHT22;3665;51.034;13.642;2023-03-11T19:16:08;-1.90;99.90
7248;DHT22;3665;51.034;13.642;2023-03-11T19:20:56;-1.80;99.90
7248;DHT22;3665;51.034;13.642;2023-03-11T19:25:41;-1.90;99.90
7248;DHT22;3665;51.034;13.642;2023-03-11T19:30:48;-1.90;99.90
7248;DHT22;3665;51.034;13.642;2023-03-11T19:35:39;-2.00;99.90
7248;DHT22;3665;51.034;13.642;2023-03-11T19:40:36;-2.10;99.90
7248;DHT22;3665;51.034;13.642;2023-03-11T19:45:33;-2.20;99.90
7248;DHT22;3665;51.034;13.642;2023-03-11T19:50:29;-2.40;99.90
7248;DHT22;3665;51.034;13.642;2023-03-11T19:55:18;-2.40;99.90
7248;DHT22;3665;51.034;13.642;2023-03-11T20:00:06;-2.30;99.90
7248;DHT22;3665;51.034;13.642;2023-03-11T20:04:52;-2.40;99.90
7248;DHT22;3665;51.034;13.642;2023-03-11T20:09:45;-2.30;99.90
7248;DHT22;3665;51.034;13.642;2023-03-11T20:14:45;-2.30;99.90
7248;DHT22;3665;51.034;13.642;2023-03-11T20:19:31;-2.30;99.90
7248;DHT22;3665;51.034;13.642;2023-03-11T20:24:20;-2.30;99.90
7248;DHT22;3665;51.034;13.642;2023-03-11T20:29:10;-2.30;99.90
7248;DHT22;3665;51.034;13.642;2023-03-11T20:33:57;-2.20;99.90
7248;DHT22;3665;51.034;13.642;2023-03-11T20:38:46;-2.20;97.30
7248;DHT22;3665;51.034;13.642;2023-03-11T20:43:48;-2.30;99.90
7248;DHT22;3665;51.034;13.642;2023-03-11T20:48:36;-2.20;94.10
7248;DHT22;3665;51.034;13.642;2023-03-11T20:53:25;-2.40;99.90
7248;DHT22;3665;51.034;13.642;2023-03-11T20:58:11;-2.50;99.90
7248;DHT22;3665;51.034;13.642;2023-03-11T21:03:01;-2.50;99.90
7248;DHT22;3665;51.034;13.642;2023-03-11T21:07:47;-2.60;99.90
7248;DHT22;3665;51.034;13.642;2023-03-11T21:12:39;-2.60;99.90
7248;DHT22;3665;51.034;13.642;2023-03-11T21:17:30;-2.60;99.90
7248;DHT22;3665;51.034;13.642;2023-03-11T21:22:30;-2.50;99.90
7248;DHT22;3665;51.034;13.642;2023-03-11T21:27:17;-2.50;99.90
7248;DHT22;3665;51.034;13.642;2023-03-11T21:32:34;-2.40;99.90
7248;DHT22;3665;51.034;13.642;2023-03-11T21:37:28;-2.60;99.90
7248;DHT22;3665;51.034;13.642;2023-03-11T21:42:33;-2.70;99.90
7248;DHT22;3665;51.034;13.642;2023-03-11T21:47:18;-2.80;99.90
7248;DHT22;3665;51.034;13.642;2023-03-11T21:52:23;-2.80;1.00
7248;DHT22;3665;51.034;13.642;2023-03-11T21:57:24;-2.80;1.00
7248;DHT22;3665;51.034;13.642;2023-03-11T22:02:13;-2.80;1.00
7248;DHT22;3665;51.034;13.642;2023-03-11T22:07:16;-2.80;1.00
7248;DHT22;3665;51.034;13.642;2023-03-11T22:12:58;-2.80;99.90
7248;DHT22;3665;51.034;13.642;2023-03-11T22:17:57;-2.70;99.90
7248;DHT22;3665;51.034;13.642;2023-03-11T22:23:01;-2.70;99.90
7248;DHT22;3665;51.034;13.642;2023-03-11T22:28:13;-2.40;99.90
7248;DHT22;3665;51.034;13.642;2023-03-11T22:33:15;-2.60;99.90
7248;DHT22;3665;51.034;13.642;2023-03-11T22:38:35;-2.60;99.90
7248;DHT22;3665;51.034;13.642;2023-03-11T22:43:50;-2.30;99.90
7248;DHT22;3665;51.034;13.642;2023-03-11T22:48:37;-2.50;58.40
7248;DHT22;3665;51.034;13.642;2023-03-11T22:53:27;-2.50;83.70
7248;DHT22;3665;51.034;13.642;2023-03-11T22:58:12;-2.50;56.40
7248;DHT22;3665;51.034;13.642;2023-03-11T23:03:16;-2.40;22.00
7248;DHT22;3665;51.034;13.642;2023-03-11T23:08:04;-2.40;1.00
7248;DHT22;3665;51.034;13.642;2023-03-11T23:12:51;-2.50;4.90
7248;DHT22;3665;51.034;13.642;2023-03-11T23:17:40;-2.60;4.30
7248;DHT22;3665;51.034;13.642;2023-03-11T23:22:34;-2.50;1.00
7248;DHT22;3665;51.034;13.642;2023-03-11T23:27:52;-2.50;1.00
7248;DHT22;3665;51.034;13.642;2023-03-11T23:32:36;-2.50;1.00
7248;DHT22;3665;51.034;13.642;2023-03-11T23:37:23;-2.50;1.00
7248;DHT22;3665;51.034;13.642;2023-03-11T23:42:34;-2.60;1.00
7248;DHT22;3665;51.034;13.642;2023-03-11T23:47:18;-2.60;1.00
7248;DHT22;3665;51.034;13.642;2023-03-11T23:52:05;-2.70;9.20
7248;DHT22;3665;51.034;13.642;2023-03-11T23:56:52;-2.80;4.10
